Bango, Nevada Weather observations

Data are for 10 minute period ending at time listed.
 Day   Time    Ave.   Ave.  Ave.  Vector   Max.   Stn.    Total    Solar   Ave.  
  of    of     Air    Rel.  Wind   Wind    Wind   Baro.  Precip.   Rad.    Soil  
Year   Day     Temp.  Hum.  Speed  Dir.    Gust   Pres.                    Temp. 
2017   (PST)    F      %     mph   deg.    mph     mb.     in.     W/m2     F    
--------------------------------------------------------------------------------- 
  80   13:30   60.4    39   17.1   168     23.9   868.1    0.00     709    13.6  
  80   13:40   60.5    39   11.2   182     19.4   868.1    0.00     512    13.6  
  80   13:50   61.1    39   14.6   247     20.3   868.3    0.00     638    13.6  
  80   14:00   60.8    39   15.0   251     20.3   868.6    0.00     688    13.7  
  80   14:10   60.7    38   12.3   272     22.1   868.7    0.00     535    13.7  
  80   14:20   60.4    38   15.0   247     24.8   868.9    0.00     323    13.7  
  80   14:30   59.6    40   28.2   239     43.6   869.0    0.00     304    13.8  
  80   14:40   56.5    43   34.3   242     45.3   869.4    0.00     221    13.8  
  80   14:50   53.1    51   35.6   241     46.2   869.7    0.00     182    13.9  
  80   15:00   51.5    56   32.2   239     41.8   870.0    0.00     170    14.0  
  80   15:10   50.5    60   31.9   234     44.5   870.0    0.00     222    14.0  
  80   15:20   49.7    62   33.3   236     44.5   869.8    0.00     353    14.0  
  80   15:30   50.5    61   33.6   234     46.2   870.0    0.00     548    14.1  
  80   15:40   49.9    61   28.2   236     36.4   870.3    0.00     444    14.1  
  80   15:50   50.2    61   24.6   235     36.4   870.6    0.00     516    14.2  
  80   16:00   50.2    61   20.1   236     28.4   870.3    0.00     433    14.2  
  80   16:10   50.3    60   14.7   224     20.3   870.6    0.00     371    14.2  
  80   16:20   50.6    59   12.9   230     18.5   870.9    0.00     392    14.3  
  80   16:30   50.6    60   11.4   219     16.7   871.0    0.00     242    14.3  
  80   16:40   49.5    62   14.9   221     18.5   870.9    0.00      98    14.3  
  80   16:50   50.1    61   13.9   229     18.5   870.3    0.00     220    14.3  
  80   17:00   49.8    61   15.7   229     18.5   870.4    0.00     134    14.3  
  80   17:10   49.5    62   14.4   241     19.4   870.4    0.00     103    14.4  
  80   17:20   49.3    62   15.1   242     19.4   870.2    0.00     135    14.4  
  80   17:30   49.5    63   13.9   236     18.5   870.2    0.00     108    14.4  
  80   17:40   49.3    63   16.4   232     21.2   870.2    0.00      71    14.4  
  80   17:50   48.8    65   16.0   224     21.2   870.5    0.00      40    14.4  
  80   18:00   48.2    67   15.6   223     20.3   870.5    0.00      17    14.4  
  80   18:10   47.7    68   15.6   222     21.2   870.6    0.00       8    14.4  
  80   18:20   47.7    67   12.7   215     18.5   870.8    0.00       3    14.4  
  80   18:30   47.5    67    9.4   192     16.7   871.0    0.00       0    14.4  
  80   18:40   47.0    69    6.2   107      9.6   871.4    0.00       0    14.4  
  80   18:50   46.9    70    6.2    99     11.4   871.5    0.00       0    14.3  
  80   19:00   47.6    67    7.3   140     11.4   871.3    0.00       0    14.3  
  80   19:10   46.9    68   10.3   207     14.1   871.0    0.00       0    14.3  
  80   19:20   46.5    69    7.8   203     14.1   871.1    0.00       0    14.3  
  80   19:30   45.5    72    5.4   210      6.9   871.3    0.00       0    14.3  
  80   19:40   44.0    76    8.1   220     10.5   871.4    0.00       0    14.2  
  80   19:50   44.3    76    8.8   220     13.2   871.3    0.00       0    14.2  
  80   20:00   44.4    74    5.9   238      8.7   871.2    0.00       0    14.2  
  80   20:10   44.0    75    7.7   252      9.6   871.5    0.00       0    14.1  
  80   20:20   43.7    76    7.5   251      9.6   871.7    0.00       0    14.1  
  80   20:30   43.8    76    5.2   234      7.8   871.9    0.00       0    14.0  
  80   20:40   43.9    76    4.7   254      7.8   872.0    0.00       0    14.0  
  80   20:50   44.5    75    6.3   246      7.8   872.1    0.00       0    13.9  
  80   21:00   44.6    76    6.5   256      8.7   872.2    0.00       0    13.9  
  80   21:10   44.5    76    6.7   246      8.7   872.3    0.00       0    13.9  
  80   21:20   44.8    73    6.9   231      8.7   872.3    0.00       0    13.8  
  80   21:30   44.7    74    8.0   232     13.2   872.5    0.00       0    13.8  
  80   21:40   44.9    74   10.1   236     16.7   872.3    0.00       0    13.7  
  80   21:50   45.2    74    8.1   226     10.5   872.2    0.00       0    13.7  
  80   22:00   45.3    74    8.0   208     11.4   872.3    0.00       0    13.6  
  80   22:10   45.0    77    8.3   174     10.5   872.2    0.00       0    13.6  
  80   22:20   44.2    82    6.9   184      8.7   872.1    0.00       0    13.5  
  80   22:30   44.1    81    6.6   197      8.7   871.8    0.00       0    13.5  
  80   22:40   43.7    81    5.0   214      6.9   871.8    0.00       0    13.4  
  80   22:50   42.5    84    4.0   262      6.0   871.9    0.00       0    13.4  
  80   23:00   41.9    86    2.3     0      3.3   872.0    0.00       0    13.4  
  80   23:10   42.4    84    2.5   250      5.1   872.2    0.00       0    13.3  
  80   23:20   42.1    84    4.5   240      6.0   872.1    0.00       0    13.3  
  80   23:30   41.1    87    6.0   244      7.8   872.0    0.00       0    13.2  
  80   23:40   40.8    88    7.8   239      9.6   871.8    0.00       0    13.2  
  80   23:50   40.9    87    5.8   234      8.7   871.7    0.00       0    13.1  
  81    0:00   40.3    88    5.8   257      6.9   871.5    0.00       0    13.1  
  81    0:10   39.6    88    5.8   256      6.9   871.5    0.00       0    13.1  
  81    0:20   39.0    88    6.1   253      6.9   871.5    0.00       0    13.0  
  81    0:30   38.7    89    7.0   250      8.7   871.5    0.00       0    13.0  
  81    0:40   38.5    89    7.8   255      8.7   871.6    0.00       0    12.9  
  81    0:50   38.2    89    7.7   250      8.7   871.5    0.00       0    12.9  
  81    1:00   37.7    89    6.7   239      7.8   871.4    0.00       0    12.8  
  81    1:10   36.9    90    7.2   242      8.7   871.4    0.00       0    12.8  
  81    1:20   36.2    91    7.5   240      9.6   871.3    0.00       0    12.7  
  81    1:30   35.9    92    7.6   241      9.6   871.2    0.00       0    12.7  
  81    1:40   36.2    92    7.0   225      8.7   871.2    0.00       0    12.6  
  81    1:50   35.9    92    7.6   233     11.4   871.2    0.00       0    12.6  
  81    2:00   36.8    90    6.2   231      9.6   870.9    0.00       0    12.6  
  81    2:10   35.9    89    6.9   236      8.7   870.8    0.00       0    12.5  
  81    2:20   35.2    91    7.4   243      8.7   870.7    0.00       0    12.4  
  81    2:30   35.3    91    9.0   250     10.5   870.6    0.00       0    12.4  
  81    2:40   36.1    90    8.2   256     11.4   870.7    0.00       0    12.3  
  81    2:50   36.2    89    7.0   260      8.7   870.6    0.00       0    12.3  
  81    3:00   35.6    90    7.0   259      7.8   870.5    0.00       0    12.2  
  81    3:10   35.2    90    4.3   247      6.9   870.4    0.00       0    12.2  
  81    3:20   35.1    90    3.9   164      7.8   870.4    0.00       0    12.1  
  81    3:30   34.3    94    4.9   156      7.8   870.4    0.00       0    12.1  
  81    3:40   34.0    94    2.5   234      4.2   870.4    0.00       0    12.0  
  81    3:50   34.2    94    3.1   250      6.0   870.5    0.00       0    12.0  
  81    4:00   32.5    94    4.9   326      6.0   870.5    0.00       0    11.9  
  81    4:10   32.7    96    3.5   327      5.1   870.4    0.00       0    11.8  
  81    4:20   33.9    95    1.9   304      4.2   870.4    0.00       0    11.8  
  81    4:30   33.8    94    3.7   261      5.1   870.4    0.00       0    11.8  
  81    4:40   32.2    93    4.7   255      6.0   870.3    0.00       0    11.7  
  81    4:50   32.8    95    3.2   245      5.1   870.3    0.00       0    11.7  
  81    5:00   32.8    93    3.6   232      5.1   870.3    0.00       0    11.6  
  81    5:10   32.3    94    4.4   260      5.1   870.3    0.00       0    11.5  
  81    5:20   32.6    95    4.1   313      5.1   870.4    0.00       0    11.5  
  81    5:30   32.0    92    4.2     2      6.0   870.4    0.00       0    11.4  
  81    5:40   31.8    95    5.3   320      6.9   870.5    0.00       0    11.4  
  81    5:50   32.6    95    4.5   311      6.0   870.6    0.00       1    11.3  
  81    6:00   31.8    94    2.2   237      4.2   870.7    0.00       2    11.3  
  81    6:10   32.5    95    1.8   285      4.2   870.8    0.00       6    11.2  
  81    6:20   33.1    94    3.7   250      6.0   870.7    0.00      10    11.2  
  81    6:30   33.7    92    3.3   271      5.1   870.8    0.00      18    11.1  
  81    6:40   35.3    90    3.3   212      7.8   870.9    0.00      23    11.1  
  81    6:50   34.3    91    2.9   174      6.0   871.0    0.00      30    11.0  
  81    7:00   35.1    90    4.2   156      6.9   871.1    0.00      68    10.9  
  81    7:10   35.3    92    4.5   169      6.9   871.1    0.00     204    10.9  
  81    7:20   38.6    89    7.0   204      8.7   871.1    0.00     238    10.8  
  81    7:30   40.8    85    5.9   213      8.7   871.1    0.00     265    10.8  
  81    7:40   43.4    78    4.9   253      6.9   871.1    0.00     303    10.8  
  81    7:50   45.8    71    3.1   215      5.1   871.1    0.00     365    10.7  
  81    8:00   47.8    68    4.0   116      9.6   871.2    0.00     394    10.7  
  81    8:10   45.2    75    7.0    36     14.1   871.3    0.00     429    10.6  
  81    8:20   45.8    72    4.5    61      6.9   871.3    0.00     474    10.6  
  81    8:30   46.5    66    3.7    34      6.0   871.3    0.00     510    10.6  
  81    8:40   47.7    62    2.6     0      4.2   871.3    0.00     558    10.5  
  81    8:50   49.5    59    2.3   122      4.2   871.3    0.00     552    10.5  
  81    9:00   49.9    57    4.1   105      6.9   871.2    0.00     549    10.5  
  81    9:10   50.5    53    2.3   106      4.2   871.0    0.00     561    10.5  
  81    9:20   51.3    51    4.3   140      7.8   871.0    0.00     619    10.5  
  81    9:30   51.6    48    2.3   251      5.1   871.0    0.00     519    10.5  
  81    9:40   51.6    44    3.0    68      6.0   870.9    0.00     606    10.5  
  81    9:50   51.8    44    3.8   194      6.9   870.9    0.00     483    10.5  
  81   10:00   52.0    44    3.2   200      6.9   870.9    0.00     479    10.5  
  81   10:10   51.5    40    8.4   216     14.9   870.9    0.00     420    10.5  
  81   10:20   51.7    33   12.0   243     16.7   870.9    0.00     348    10.6  
  81   10:30   51.5    32   13.4   235     18.5   870.9    0.00     349    10.6  
  81   10:40   51.5    32   13.1   245     18.5   870.9    0.00     293    10.7  
  81   10:50   51.3    31   14.8   248     19.4   870.8    0.00     250    10.7  
  81   11:00   51.4    31   15.4   250     20.3   870.7    0.00     239    10.8  
  81   11:10   51.1    31   17.3   269     23.0   870.6    0.00     241    10.8  
  81   11:20   50.9    32   17.0   270     23.0   870.6    0.00     235    10.9  
  81   11:30   50.7    33   16.9   274     23.0   870.7    0.00     245    11.0  
  81   11:40   50.5    34   18.2   278     24.8   870.6    0.00     277    11.0  
  81   11:50   50.3    36   18.0   281     23.0   870.5    0.00     313    11.1  
  81   12:00   50.3    39   16.9   281     23.0   870.6    0.00     358    11.2  
  81   12:10   50.3    39   15.1   287     20.3   870.6    0.00     349    11.2  
  81   12:20   50.5    38   15.3   304     21.2   870.5    0.00     341    11.3  
  81   12:30   50.5    41   16.2   305     24.8   870.5    0.00     344    11.3  
  81   12:40   50.4    43   15.1   312     19.4   870.4    0.00     329    11.4  
  81   12:50   50.8    42   15.5   308     20.3   870.4    0.00     361    11.4  
  81   13:00   51.4    40   15.2   280     19.4   870.4    0.00     484    11.5  
  81   13:10   51.6    42   14.4   286     23.0   870.2    0.00     495    11.5  
  81   13:20   51.3    43   16.7   290     23.0   870.0    0.00     457    11.5  

Return to Garden Spring, Nevada graphs page.


Western Regional Climate Center,wrcc@dri.edu